Time;durP1;ratioP1;P1;durP2;ratioP2;P2;SDS_P1;SDS_P2;PMS_P1;PMS_P2;Temp;Humidity;BMP_temperature;BMP_pressure;BME280_temperature;BME280_humidity;BME280_pressure;Samples;Min_cycle;Max_cycle;Signal;HPM_P1;HPM_P2
2023/08/06 00:02:21;;;;;;;8.02;7.22;;;18.60;99.90;;;;;;5006813;28;20208;-77
2023/08/06 00:04:47;;;;;;;8.38;7.57;;;18.60;99.90;;;;;;5010422;28;20213;-79
2023/08/06 00:07:12;;;;;;;9.00;7.82;;;18.60;99.90;;;;;;5007440;28;20376;-77
2023/08/06 00:09:38;;;;;;;10.02;8.35;;;18.70;99.90;;;;;;5018754;28;20241;-78
2023/08/06 00:12:04;;;;;;;9.52;8.00;;;18.60;99.90;;;;;;5020532;28;20288;-78
2023/08/06 00:14:30;;;;;;;9.35;8.18;;;18.60;99.90;;;;;;5009151;28;20220;-78
2023/08/06 00:16:55;;;;;;;10.73;8.50;;;18.70;99.90;;;;;;5008940;28;20312;-78
2023/08/06 00:19:21;;;;;;;9.82;8.82;;;18.60;99.90;;;;;;5025996;28;20200;-78
2023/08/06 00:21:47;;;;;;;10.27;9.27;;;18.60;99.90;;;;;;5011711;28;20590;-77
2023/08/06 00:24:12;;;;;;;12.00;9.43;;;18.50;99.90;;;;;;5018202;28;20215;-77
2023/08/06 00:26:38;;;;;;;10.70;8.98;;;18.50;99.90;;;;;;5006455;28;20364;-78
2023/08/06 00:29:03;;;;;;;10.52;9.43;;;18.40;99.90;;;;;;5007986;28;20218;-77
2023/08/06 00:31:29;;;;;;;9.93;8.60;;;18.40;99.90;;;;;;5011071;28;20178;-77
2023/08/06 00:33:55;;;;;;;12.15;9.70;;;18.40;99.90;;;;;;5017676;28;20291;-77
2023/08/06 00:36:20;;;;;;;11.57;9.50;;;18.30;99.90;;;;;;5023133;28;20271;-79
2023/08/06 00:38:46;;;;;;;10.80;9.73;;;18.30;99.90;;;;;;5010039;28;20269;-77
2023/08/06 00:41:11;;;;;;;9.77;8.20;;;18.40;99.90;;;;;;5017286;28;20237;-75
2023/08/06 00:43:37;;;;;;;10.95;8.82;;;18.40;99.90;;;;;;5006921;28;20683;-77
2023/08/06 00:46:03;;;;;;;11.90;8.75;;;18.40;99.90;;;;;;5020848;28;20680;-77
2023/08/06 00:48:29;;;;;;;10.95;9.00;;;18.30;99.90;;;;;;5018660;28;20205;-77
2023/08/06 00:50:55;;;;;;;10.35;9.25;;;18.20;99.90;;;;;;5002928;28;20244;-76
2023/08/06 00:53:20;;;;;;;10.35;8.90;;;18.20;99.90;;;;;;5009757;28;20204;-76
2023/08/06 00:55:47;;;;;;;11.45;9.32;;;18.20;99.90;;;;;;5009817;28;20197;-77
2023/08/06 00:58:15;;;;;;;9.10;8.13;;;18.20;99.90;;;;;;5007213;28;20237;-76
2023/08/06 01:00:40;;;;;;;10.07;8.52;;;18.20;99.90;;;;;;5016996;28;20252;-77
2023/08/06 01:03:06;;;;;;;12.80;7.93;;;18.30;99.90;;;;;;5021727;28;20580;-77
2023/08/06 01:05:32;;;;;;;10.20;8.60;;;18.30;99.90;;;;;;5021563;28;20217;-77
2023/08/06 01:08:03;;;;;;;8.55;7.80;;;18.30;99.90;;;;;;5008218;28;20212;-77
2023/08/06 01:10:53;;;;;;;9.63;7.68;;;18.20;99.90;;;;;;5002882;28;20204;-77
2023/08/06 01:13:37;;;;;;;10.38;7.63;;;18.10;99.90;;;;;;5023390;28;20209;-77
2023/08/06 01:16:05;;;;;;;9.27;8.25;;;18.10;99.90;;;;;;5007107;28;20241;-77
2023/08/06 01:18:31;;;;;;;11.00;7.47;;;18.20;99.90;;;;;;5007564;28;20247;-76
2023/08/06 01:20:57;;;;;;;9.60;7.32;;;18.10;99.90;;;;;;5007637;28;20233;-76
2023/08/06 01:23:23;;;;;;;8.60;7.03;;;18.10;99.90;;;;;;5007843;28;20225;-78
2023/08/06 01:26:03;;;;;;;10.02;7.97;;;18.10;99.90;;;;;;5015399;28;20250;-77
2023/08/06 01:28:48;;;;;;;8.45;7.53;;;18.00;99.90;;;;;;5007125;28;20540;-77
2023/08/06 01:31:26;;;;;;;9.13;7.30;;;18.10;99.90;;;;;;5010946;28;20762;-76
2023/08/06 01:33:53;;;;;;;9.15;8.25;;;18.10;99.90;;;;;;5007930;28;20291;-76
2023/08/06 01:36:20;;;;;;;8.85;7.88;;;18.00;99.90;;;;;;5009288;28;20209;-76
2023/08/06 01:38:46;;;;;;;8.10;7.30;;;18.00;99.90;;;;;;5013117;28;20209;-77
2023/08/06 01:41:11;;;;;;;7.70;6.93;;;17.90;99.90;;;;;;5012450;28;20619;-75
2023/08/06 01:43:37;;;;;;;8.60;7.75;;;17.90;99.90;;;;;;5015833;28;20658;-76
2023/08/06 01:46:03;;;;;;;10.27;8.40;;;17.90;99.90;;;;;;5029563;28;20193;-77
2023/08/06 01:48:28;;;;;;;9.15;7.90;;;17.80;99.90;;;;;;5015091;28;20706;-76
2023/08/06 01:50:54;;;;;;;8.75;7.90;;;17.90;99.90;;;;;;5021027;28;20201;-76
2023/08/06 01:53:19;;;;;;;8.40;7.55;;;17.80;99.90;;;;;;5017080;28;20207;-76
2023/08/06 01:55:51;;;;;;;8.48;7.68;;;17.80;99.90;;;;;;5026536;28;20198;-76
2023/08/06 01:58:17;;;;;;;9.95;7.85;;;17.80;99.90;;;;;;5014854;28;20262;-76
2023/08/06 02:00:42;;;;;;;8.30;7.50;;;17.80;99.90;;;;;;5017341;28;20209;-77
2023/08/06 02:03:08;;;;;;;8.95;7.70;;;17.80;99.90;;;;;;5013137;28;20209;-76
2023/08/06 02:05:33;;;;;;;8.85;7.90;;;17.90;99.90;;;;;;5029244;28;20301;-77
2023/08/06 02:07:59;;;;;;;8.95;7.20;;;17.90;99.90;;;;;;5014092;28;20205;-74
2023/08/06 02:10:25;;;;;;;11.27;7.60;;;17.90;99.90;;;;;;5013653;28;20644;-76
2023/08/06 02:12:50;;;;;;;8.23;7.40;;;17.80;99.90;;;;;;5012289;28;20205;-77
2023/08/06 02:15:16;;;;;;;8.52;7.60;;;17.80;99.90;;;;;;5011505;28;20213;-76
2023/08/06 02:17:41;;;;;;;9.02;7.45;;;17.80;99.90;;;;;;5012033;28;20197;-76
2023/08/06 02:20:07;;;;;;;9.07;7.50;;;17.80;99.90;;;;;;5010677;28;20581;-77
2023/08/06 02:22:33;;;;;;;8.07;7.25;;;17.80;99.90;;;;;;5026718;28;20193;-77
2023/08/06 02:24:59;;;;;;;9.02;7.78;;;17.80;99.90;;;;;;5010257;28;20216;-76
2023/08/06 02:27:25;;;;;;;8.07;7.13;;;17.70;99.90;;;;;;5012226;28;20244;-76
2023/08/06 02:29:50;;;;;;;9.52;7.60;;;17.80;99.90;;;;;;5008245;28;20201;-76
2023/08/06 02:32:16;;;;;;;8.95;8.05;;;17.80;99.90;;;;;;5009722;28;20209;-76
2023/08/06 02:34:42;;;;;;;7.93;7.13;;;17.70;99.90;;;;;;5007420;28;20225;-76
2023/08/06 02:37:07;;;;;;;9.35;8.05;;;17.60;99.90;;;;;;5008645;28;20584;-75
2023/08/06 02:39:34;;;;;;;10.40;7.50;;;17.60;99.90;;;;;;5008024;28;20301;-75
2023/08/06 02:41:59;;;;;;;9.00;8.20;;;17.60;99.90;;;;;;5012005;28;20205;-76
2023/08/06 02:44:28;;;;;;;8.15;7.30;;;17.70;99.90;;;;;;5010852;28;20589;-76
2023/08/06 02:46:54;;;;;;;10.27;7.78;;;17.70;99.90;;;;;;5013406;28;20200;-76
2023/08/06 02:49:19;;;;;;;8.90;8.00;;;17.70;99.90;;;;;;5010402;28;20641;-75
2023/08/06 02:51:45;;;;;;;9.82;7.88;;;17.70;99.90;;;;;;5012350;28;20327;-75
2023/08/06 02:54:11;;;;;;;10.13;7.82;;;17.70;99.90;;;;;;5012372;28;20579;-75
2023/08/06 02:56:37;;;;;;;8.82;8.02;;;17.70;99.90;;;;;;5009318;28;20287;-76
2023/08/06 02:59:03;;;;;;;9.65;8.68;;;17.70;99.90;;;;;;5010979;28;20271;-76
2023/08/06 03:01:29;;;;;;;11.45;7.72;;;17.80;99.90;;;;;;5009197;28;20200;-75
2023/08/06 03:03:54;;;;;;;8.70;7.78;;;17.70;99.90;;;;;;5008156;28;20303;-76
2023/08/06 03:06:20;;;;;;;8.30;7.47;;;17.70;99.90;;;;;;5012042;28;20629;-76
2023/08/06 03:08:45;;;;;;;9.38;8.43;;;17.60;99.90;;;;;;5014065;28;20219;-76
2023/08/06 03:11:11;;;;;;;9.48;8.10;;;17.60;99.90;;;;;;5008326;28;20221;-75
2023/08/06 03:13:37;;;;;;;10.10;8.13;;;17.60;99.90;;;;;;5010732;28;20231;-76
2023/08/06 03:16:02;;;;;;;11.82;8.07;;;17.70;99.90;;;;;;5007667;28;20272;-76
2023/08/06 03:18:28;;;;;;;8.48;7.60;;;17.70;99.90;;;;;;5014085;28;20237;-76
2023/08/06 03:20:54;;;;;;;8.88;7.00;;;17.60;99.90;;;;;;5012177;28;20586;-75
2023/08/06 03:23:20;;;;;;;7.53;6.82;;;17.60;99.90;;;;;;5007672;28;20699;-77
2023/08/06 03:25:46;;;;;;;9.95;8.95;;;17.50;99.90;;;;;;5027055;28;20197;-76
2023/08/06 03:28:12;;;;;;;11.38;7.78;;;17.50;99.90;;;;;;5015431;28;21000;-75
2023/08/06 03:30:38;;;;;;;8.60;7.47;;;17.40;99.90;;;;;;5011899;28;20307;-77
2023/08/06 03:33:03;;;;;;;8.88;7.97;;;17.30;99.90;;;;;;5018696;28;20209;-77
2023/08/06 03:35:29;;;;;;;11.25;9.10;;;17.30;99.90;;;;;;5011557;28;20224;-77
2023/08/06 03:37:55;;;;;;;10.57;8.98;;;17.20;99.90;;;;;;5009367;28;20251;-77
2023/08/06 03:40:21;;;;;;;9.75;8.23;;;17.20;99.90;;;;;;5009128;28;20304;-76
2023/08/06 03:42:47;;;;;;;9.25;8.27;;;17.20;99.90;;;;;;5010914;28;20374;-77
2023/08/06 03:45:12;;;;;;;9.70;8.60;;;17.20;99.90;;;;;;5010447;28;20217;-77
2023/08/06 03:47:38;;;;;;;8.90;7.85;;;17.00;99.90;;;;;;5010362;28;20216;-78
2023/08/06 03:50:04;;;;;;;8.85;7.85;;;17.10;99.90;;;;;;5018493;28;20884;-77
2023/08/06 03:52:29;;;;;;;11.10;7.85;;;17.10;99.90;;;;;;5006532;28;20185;-77
2023/08/06 03:54:55;;;;;;;9.60;7.30;;;17.10;99.90;;;;;;5012582;28;20268;-78
2023/08/06 03:57:20;;;;;;;7.93;7.07;;;17.00;99.90;;;;;;5012062;28;20208;-77
2023/08/06 03:59:46;;;;;;;8.25;7.40;;;17.10;99.90;;;;;;5009721;28;20757;-77
2023/08/06 04:02:12;;;;;;;8.20;7.40;;;17.00;99.90;;;;;;5008618;28;20282;-75
2023/08/06 04:04:37;;;;;;;8.60;6.88;;;17.10;99.90;;;;;;5010250;28;20246;-77
2023/08/06 04:07:03;;;;;;;8.02;7.22;;;17.10;99.90;;;;;;5011951;28;20644;-76
2023/08/06 04:09:29;;;;;;;8.00;6.25;;;17.20;99.90;;;;;;5008591;28;20213;-75
2023/08/06 04:11:55;;;;;;;6.15;5.55;;;17.00;99.90;;;;;;5007642;28;20266;-76
2023/08/06 04:14:21;;;;;;;7.65;6.93;;;16.90;99.90;;;;;;5010563;28;20236;-75
2023/08/06 04:16:47;;;;;;;6.43;5.82;;;16.90;99.90;;;;;;5007468;28;20181;-76
2023/08/06 04:19:12;;;;;;;6.35;5.70;;;16.90;99.90;;;;;;5011675;28;20255;-76
2023/08/06 04:21:38;;;;;;;8.02;6.43;;;16.90;99.90;;;;;;5011544;28;20213;-76
2023/08/06 04:24:04;;;;;;;6.63;5.93;;;17.10;99.90;;;;;;5019503;28;20228;-76
2023/08/06 04:26:29;;;;;;;6.85;5.57;;;17.00;99.90;;;;;;5007730;28;20213;-76
2023/08/06 04:28:55;;;;;;;6.82;5.95;;;17.10;99.90;;;;;;5017555;28;20275;-76
2023/08/06 04:31:22;;;;;;;8.02;6.25;;;17.00;99.90;;;;;;5011680;28;20543;-76
2023/08/06 04:33:47;;;;;;;7.38;6.28;;;16.90;99.90;;;;;;5010107;28;20259;-76
2023/08/06 04:36:13;;;;;;;6.75;5.90;;;17.10;99.90;;;;;;5011634;28;20209;-74
2023/08/06 04:38:41;;;;;;;5.95;5.35;;;17.10;99.90;;;;;;5012053;28;20209;-77
2023/08/06 04:41:06;;;;;;;7.75;5.68;;;17.00;99.90;;;;;;5018621;28;20243;-77
2023/08/06 04:43:32;;;;;;;7.38;6.68;;;17.00;99.90;;;;;;5008795;28;20185;-76
2023/08/06 04:45:58;;;;;;;6.10;5.50;;;17.10;99.90;;;;;;5017603;28;20745;-76
2023/08/06 04:48:23;;;;;;;6.85;6.18;;;17.10;99.90;;;;;;5018025;28;20205;-75
2023/08/06 04:50:50;;;;;;;6.38;5.72;;;17.30;99.90;;;;;;5025069;28;20268;-76
2023/08/06 04:53:16;;;;;;;6.18;5.45;;;17.20;99.90;;;;;;5006052;28;20313;-75
2023/08/06 04:55:42;;;;;;;7.10;5.72;;;17.00;99.90;;;;;;5007372;28;20331;-77
2023/08/06 04:58:09;;;;;;;6.20;5.60;;;17.00;99.90;;;;;;5014053;28;20201;-76
2023/08/06 05:00:35;;;;;;;7.78;6.15;;;17.20;99.90;;;;;;5012138;28;20209;-76
2023/08/06 05:03:01;;;;;;;8.57;6.40;;;17.40;99.90;;;;;;5006991;28;20197;-76
2023/08/06 05:05:28;;;;;;;7.18;6.15;;;17.30;99.90;;;;;;5008843;28;20308;-76
2023/08/06 05:07:56;;;;;;;8.38;6.90;;;17.30;99.90;;;;;;5018541;28;20501;-75
2023/08/06 05:10:24;;;;;;;6.72;6.13;;;17.30;99.90;;;;;;5008937;28;20202;-75
2023/08/06 05:12:49;;;;;;;6.70;6.00;;;17.40;99.90;;;;;;5025491;28;20205;-75
2023/08/06 05:15:15;;;;;;;7.78;6.97;;;17.40;99.90;;;;;;5022463;28;20264;-76
2023/08/06 05:17:40;;;;;;;7.78;6.60;;;17.30;99.90;;;;;;5026209;28;20200;-76
2023/08/06 05:20:06;;;;;;;7.63;6.32;;;17.40;99.90;;;;;;5013533;28;20228;-77
2023/08/06 05:22:32;;;;;;;6.53;5.90;;;17.50;99.90;;;;;;5009864;28;20729;-75
2023/08/06 05:24:58;;;;;;;7.03;6.40;;;17.60;99.90;;;;;;5021203;28;20209;-75
2023/08/06 05:27:23;;;;;;;6.70;5.65;;;17.70;99.90;;;;;;5023993;28;20231;-74
2023/08/06 05:29:49;;;;;;;7.75;5.47;;;17.70;99.90;;;;;;5026680;28;20201;-74
2023/08/06 05:32:15;;;;;;;6.38;5.63;;;17.70;99.90;;;;;;5030025;28;20209;-74
2023/08/06 05:34:41;;;;;;;6.45;5.85;;;17.80;99.90;;;;;;5019518;28;20197;-74
2023/08/06 05:37:07;;;;;;;6.57;5.47;;;17.80;99.90;;;;;;5030082;28;20180;-77
2023/08/06 05:39:32;;;;;;;6.18;5.55;;;17.70;99.90;;;;;;5018572;28;20670;-77
2023/08/06 05:41:58;;;;;;;9.32;6.43;;;17.60;99.90;;;;;;5027665;28;20589;-76
2023/08/06 05:44:24;;;;;;;7.22;6.53;;;17.60;99.90;;;;;;5020900;28;20209;-76
2023/08/06 05:46:50;;;;;;;7.18;6.20;;;17.60;99.90;;;;;;5013697;28;20169;-77
2023/08/06 05:49:15;;;;;;;6.90;6.20;;;17.70;99.90;;;;;;5011159;28;20181;-78
2023/08/06 05:51:41;;;;;;;6.80;5.30;;;17.60;99.90;;;;;;5013202;28;20489;-77
2023/08/06 05:54:07;;;;;;;6.93;5.80;;;17.60;99.90;;;;;;5012539;28;20232;-77
2023/08/06 05:56:33;;;;;;;5.90;5.30;;;17.50;99.90;;;;;;5016484;28;20291;-77
2023/08/06 05:58:59;;;;;;;6.15;5.40;;;17.60;99.90;;;;;;5012168;28;20228;-77
2023/08/06 06:01:24;;;;;;;8.50;6.72;;;17.60;99.90;;;;;;5011097;28;20184;-76
2023/08/06 06:03:50;;;;;;;8.65;7.35;;;17.70;99.90;;;;;;5005828;28;20593;-78
2023/08/06 06:06:16;;;;;;;7.53;6.75;;;17.80;99.90;;;;;;5011427;28;20224;-77
2023/08/06 06:08:42;;;;;;;7.18;6.30;;;17.80;99.90;;;;;;5013283;28;20295;-79
2023/08/06 06:11:07;;;;;;;7.70;6.90;;;17.70;99.90;;;;;;5016535;28;20236;-77
2023/08/06 06:13:33;;;;;;;6.47;5.63;;;17.60;99.90;;;;;;5015956;28;20268;-77
2023/08/06 06:15:58;;;;;;;7.07;5.70;;;17.60;99.90;;;;;;5022430;28;20212;-79
2023/08/06 06:18:24;;;;;;;7.15;6.38;;;17.60;99.90;;;;;;5010278;28;20316;-75
2023/08/06 06:20:50;;;;;;;7.25;6.47;;;17.60;99.90;;;;;;5013677;28;20209;-76
2023/08/06 06:23:15;;;;;;;7.55;6.80;;;17.60;99.90;;;;;;5012734;28;20213;-75
2023/08/06 06:25:48;;;;;;;8.50;6.60;;;17.80;99.90;;;;;;5012261;28;20635;-76
2023/08/06 06:28:14;;;;;;;6.95;6.15;;;17.90;99.90;;;;;;5008655;28;20173;-76
2023/08/06 06:30:42;;;;;;;9.52;7.20;;;17.90;99.90;;;;;;5011231;28;20258;-75
2023/08/06 06:33:07;;;;;;;9.68;8.68;;;17.80;99.90;;;;;;5011682;28;20305;-73
2023/08/06 06:35:33;;;;;;;6.00;5.40;;;17.80;99.90;;;;;;5018478;28;20291;-75
2023/08/06 06:37:59;;;;;;;6.22;5.63;;;17.80;99.90;;;;;;5007011;28;20228;-76
2023/08/06 06:40:25;;;;;;;6.13;5.53;;;18.00;99.90;;;;;;5007146;28;20678;-73
2023/08/06 06:42:51;;;;;;;5.95;5.28;;;18.10;99.90;;;;;;5008905;28;20200;-76
2023/08/06 06:45:16;;;;;;;5.65;5.05;;;18.20;99.90;;;;;;5009608;28;20221;-75
2023/08/06 06:47:42;;;;;;;5.30;4.80;;;18.30;99.90;;;;;;5006563;28;20235;-77
2023/08/06 06:50:08;;;;;;;6.13;5.53;;;18.30;99.90;;;;;;5007404;28;20237;-74
2023/08/06 06:52:34;;;;;;;5.55;4.85;;;18.30;99.90;;;;;;5016315;28;20200;-76
2023/08/06 06:55:00;;;;;;;5.70;5.20;;;18.30;99.90;;;;;;5005496;28;20201;-76
2023/08/06 06:57:26;;;;;;;5.30;4.63;;;18.40;99.90;;;;;;5011368;28;20219;-77
2023/08/06 06:59:51;;;;;;;6.15;5.18;;;18.50;99.90;;;;;;5009996;28;20219;-76
2023/08/06 07:02:17;;;;;;;5.15;4.65;;;18.50;99.90;;;;;;5006204;28;20806;-75
2023/08/06 07:04:43;;;;;;;5.68;4.82;;;18.50;99.90;;;;;;5005216;28;20209;-76
2023/08/06 07:07:08;;;;;;;7.90;4.63;;;18.50;99.90;;;;;;5004772;28;20182;-76
2023/08/06 07:09:35;;;;;;;4.82;4.10;;;18.60;99.90;;;;;;5013600;28;20316;-77
2023/08/06 07:12:01;;;;;;;5.05;4.50;;;18.70;99.90;;;;;;5007657;28;20213;-76
2023/08/06 07:14:28;;;;;;;4.78;4.20;;;18.60;99.90;;;;;;5010127;28;20225;-75
2023/08/06 07:16:54;;;;;;;5.63;5.13;;;18.80;99.90;;;;;;5004780;28;20216;-76
2023/08/06 07:19:20;;;;;;;6.45;4.88;;;18.90;99.90;;;;;;5006087;28;20208;-75
2023/08/06 07:21:46;;;;;;;5.22;4.72;;;19.00;99.90;;;;;;5023225;28;20221;-73
2023/08/06 07:24:11;;;;;;;7.57;4.88;;;19.00;99.90;;;;;;5007258;28;20275;-76
2023/08/06 07:26:37;;;;;;;5.93;5.35;;;19.00;99.90;;;;;;5004694;28;20215;-75
2023/08/06 07:29:03;;;;;;;6.35;5.43;;;19.00;99.90;;;;;;5009844;28;20216;-79
2023/08/06 07:31:28;;;;;;;5.75;5.25;;;19.00;99.90;;;;;;5008946;28;20178;-77
2023/08/06 07:33:54;;;;;;;7.93;5.70;;;19.00;99.90;;;;;;5009108;28;20215;-75
2023/08/06 07:36:20;;;;;;;7.07;6.38;;;18.90;99.90;;;;;;5005007;28;20213;-72
2023/08/06 07:38:46;;;;;;;5.68;5.18;;;18.80;99.90;;;;;;5003744;28;20583;-74
2023/08/06 07:41:11;;;;;;;6.35;5.75;;;18.70;99.90;;;;;;5001536;28;20280;-73
2023/08/06 07:43:37;;;;;;;6.60;6.00;;;18.70;99.90;;;;;;5004283;28;20243;-73
2023/08/06 07:46:03;;;;;;;7.45;6.72;;;18.60;99.90;;;;;;5001737;28;20185;-74
2023/08/06 07:48:29;;;;;;;7.65;5.57;;;18.60;99.90;;;;;;5003411;28;20284;-74
2023/08/06 07:50:55;;;;;;;7.47;5.95;;;18.80;99.90;;;;;;5003973;28;20599;-74
2023/08/06 07:53:29;;;;;;;7.63;6.15;;;18.70;99.90;;;;;;4997820;28;20209;-74
2023/08/06 07:55:55;;;;;;;6.40;5.57;;;18.80;99.90;;;;;;5005487;28;20332;-73
2023/08/06 07:58:21;;;;;;;7.45;6.75;;;18.90;99.90;;;;;;5004700;28;20275;-74
2023/08/06 08:00:47;;;;;;;10.25;8.55;;;18.90;99.90;;;;;;5006476;28;20408;-73
2023/08/06 08:03:14;;;;;;;8.15;7.28;;;19.00;99.90;;;;;;5004822;28;20216;-74
2023/08/06 08:05:40;;;;;;;7.40;6.63;;;19.10;99.90;;;;;;5003294;28;20209;-73
2023/08/06 08:08:06;;;;;;;9.50;7.80;;;19.10;99.90;;;;;;5004132;28;20662;-74
2023/08/06 08:10:32;;;;;;;8.50;7.68;;;19.20;99.90;;;;;;5004355;28;20181;-75
2023/08/06 08:12:58;;;;;;;8.93;8.13;;;19.30;99.90;;;;;;5011197;28;20213;-75
2023/08/06 08:15:26;;;;;;;10.88;8.95;;;19.40;99.90;;;;;;4999790;28;20308;-73
2023/08/06 08:17:52;;;;;;;10.13;9.13;;;19.30;99.90;;;;;;5003599;28;20271;-73
2023/08/06 08:20:18;;;;;;;9.82;8.57;;;19.50;99.90;;;;;;5004236;28;20577;-73
2023/08/06 08:22:43;;;;;;;9.70;8.77;;;19.50;99.90;;;;;;5003732;28;20173;-77
2023/08/06 08:25:09;;;;;;;11.07;9.00;;;19.50;99.90;;;;;;5018883;28;20249;-76
2023/08/06 08:27:35;;;;;;;9.60;8.63;;;19.60;99.90;;;;;;5001329;28;20262;-76
2023/08/06 08:30:00;;;;;;;9.90;8.90;;;19.60;99.90;;;;;;5008716;28;20196;-76
2023/08/06 08:32:26;;;;;;;10.43;9.18;;;19.50;99.90;;;;;;4999499;28;20297;-75
2023/08/06 08:34:51;;;;;;;9.13;8.25;;;19.60;99.90;;;;;;5002455;28;20800;-76
2023/08/06 08:37:17;;;;;;;9.77;8.68;;;19.70;99.90;;;;;;5005549;28;20181;-74
2023/08/06 08:39:43;;;;;;;13.38;8.90;;;19.60;99.90;;;;;;5005187;28;20282;-75
2023/08/06 08:42:10;;;;;;;9.43;8.48;;;19.60;99.90;;;;;;5000880;28;20209;-74
2023/08/06 08:44:39;;;;;;;10.75;9.68;;;19.60;99.90;;;;;;5007119;28;20198;-74
2023/08/06 08:47:06;;;;;;;12.20;9.35;;;19.60;99.90;;;;;;5001314;28;20297;-75
2023/08/06 08:49:34;;;;;;;9.38;8.38;;;19.60;99.90;;;;;;5002303;28;20636;-74
2023/08/06 08:52:02;;;;;;;10.07;8.70;;;19.60;99.90;;;;;;5023070;28;20262;-75
2023/08/06 08:54:30;;;;;;;10.85;9.73;;;19.50;99.90;;;;;;5003509;28;20366;-74
2023/08/06 08:56:56;;;;;;;10.10;8.88;;;19.40;99.90;;;;;;5022893;28;20227;-75
2023/08/06 08:59:22;;;;;;;9.25;8.35;;;19.50;99.90;;;;;;5004044;28;20762;-75
2023/08/06 09:01:51;;;;;;;11.18;8.63;;;19.60;99.90;;;;;;5022879;28;20296;-74
2023/08/06 09:04:17;;;;;;;9.90;8.90;;;19.70;99.90;;;;;;5021157;28;20703;-76
2023/08/06 09:06:46;;;;;;;9.48;8.52;;;19.70;99.90;;;;;;5010643;28;20228;-75
2023/08/06 09:09:17;;;;;;;9.20;8.40;;;19.90;99.90;;;;;;5009518;28;20209;-75
2023/08/06 09:11:44;;;;;;;9.63;8.65;;;19.90;99.90;;;;;;5011880;28;20209;-74
2023/08/06 09:14:11;;;;;;;9.32;8.27;;;19.90;99.90;;;;;;5022350;28;20263;-74
2023/08/06 09:16:37;;;;;;;9.63;8.73;;;19.80;99.90;;;;;;5008691;28;20205;-77
2023/08/06 09:19:10;;;;;;;10.38;9.27;;;19.80;99.90;;;;;;5023407;28;20201;-75
2023/08/06 09:21:40;;;;;;;9.15;8.23;;;19.90;99.90;;;;;;5002763;28;20260;-74
2023/08/06 09:24:12;;;;;;;10.13;9.13;;;19.90;99.90;;;;;;5009593;28;20193;-75
2023/08/06 09:26:44;;;;;;;9.30;8.40;;;19.80;99.90;;;;;;5017862;28;20710;-76
2023/08/06 09:29:14;;;;;;;10.15;9.15;;;20.00;99.90;;;;;;5002735;28;20197;-74
2023/08/06 09:31:48;;;;;;;11.02;9.30;;;20.10;99.90;;;;;;5007829;28;20177;-76
2023/08/06 09:34:19;;;;;;;10.77;9.25;;;20.20;99.90;;;;;;5005712;28;20176;-75
2023/08/06 09:36:53;;;;;;;9.57;8.63;;;20.10;99.90;;;;;;5015907;28;20786;-74
2023/08/06 09:39:20;;;;;;;10.32;9.23;;;20.10;99.90;;;;;;5008139;28;20226;-74
2023/08/06 09:41:49;;;;;;;10.70;9.05;;;20.10;99.90;;;;;;5005321;28;20698;-76
2023/08/06 09:44:25;;;;;;;9.60;8.45;;;20.10;99.90;;;;;;5007525;28;20551;-75
2023/08/06 09:46:56;;;;;;;11.27;10.02;;;20.10;99.90;;;;;;5006169;28;20176;-75
2023/08/06 09:49:32;;;;;;;10.35;9.40;;;20.20;99.90;;;;;;5006864;28;20307;-74
2023/08/06 09:51:59;;;;;;;9.93;8.82;;;20.20;99.90;;;;;;5005456;28;20208;-74
2023/08/06 09:54:27;;;;;;;11.02;9.73;;;20.30;99.90;;;;;;5019567;28;20284;-74
2023/08/06 09:56:53;;;;;;;10.02;8.70;;;20.20;99.90;;;;;;5007478;28;20205;-74
2023/08/06 09:59:19;;;;;;;10.40;9.27;;;20.10;99.90;;;;;;5003096;28;20268;-74
2023/08/06 10:01:46;;;;;;;9.82;8.82;;;20.20;99.90;;;;;;5008309;28;20232;-73
2023/08/06 10:04:16;;;;;;;11.70;10.50;;;20.40;99.90;;;;;;5009437;28;20185;-75
2023/08/06 10:06:42;;;;;;;9.90;9.00;;;20.30;99.90;;;;;;5008173;28;20227;-75
2023/08/06 10:09:09;;;;;;;10.32;9.20;;;20.30;99.90;;;;;;5007618;28;20207;-74
2023/08/06 10:11:36;;;;;;;10.18;8.93;;;20.10;99.90;;;;;;5019796;28;20209;-75
2023/08/06 10:14:12;;;;;;;9.95;9.00;;;19.90;99.90;;;;;;5012717;28;20197;-74
2023/08/06 10:16:40;;;;;;;11.15;10.15;;;19.70;99.90;;;;;;5011857;28;20275;-75
2023/08/06 10:19:08;;;;;;;12.38;9.38;;;19.70;99.90;;;;;;5027226;28;20695;-76
2023/08/06 10:21:34;;;;;;;12.38;9.93;;;19.70;99.90;;;;;;5020005;28;20671;-76
2023/08/06 10:24:01;;;;;;;10.57;9.48;;;19.60;99.90;;;;;;5008870;28;20231;-76
2023/08/06 10:26:28;;;;;;;11.63;10.43;;;19.60;99.90;;;;;;5020073;28;20209;-76
2023/08/06 10:28:54;;;;;;;13.13;11.48;;;19.60;99.90;;;;;;5008276;28;20229;-76
2023/08/06 10:31:20;;;;;;;13.05;11.75;;;19.60;99.90;;;;;;5009795;28;20632;-76
2023/08/06 10:33:47;;;;;;;13.35;11.95;;;19.50;99.90;;;;;;5006910;28;20655;-75
2023/08/06 10:36:14;;;;;;;14.50;11.70;;;19.60;99.90;;;;;;5004528;28;20574;-75
2023/08/06 10:38:50;;;;;;;13.88;12.13;;;19.60;99.90;;;;;;5012973;28;20201;-76
2023/08/06 10:41:36;;;;;;;19.55;14.05;;;19.60;99.90;;;;;;5010274;28;20217;-75
2023/08/06 10:44:09;;;;;;;14.30;12.65;;;19.70;99.90;;;;;;5012192;28;20287;-76
2023/08/06 10:46:35;;;;;;;13.55;12.05;;;19.90;99.90;;;;;;5010678;28;20185;-77
2023/08/06 10:49:01;;;;;;;12.82;11.35;;;19.90;99.90;;;;;;5010035;28;20512;-75
2023/08/06 10:51:27;;;;;;;11.52;10.32;;;19.90;99.90;;;;;;5010663;28;20219;-76
2023/08/06 10:53:53;;;;;;;12.30;10.05;;;19.80;99.90;;;;;;5009718;28;20762;-73
2023/08/06 10:56:25;;;;;;;12.10;10.10;;;19.80;99.90;;;;;;5009830;28;20215;-76
2023/08/06 10:58:51;;;;;;;11.07;10.02;;;19.60;99.90;;;;;;5007367;28;20204;-73
2023/08/06 11:01:17;;;;;;;10.65;9.60;;;19.60;99.90;;;;;;5010116;28;20183;-75
2023/08/06 11:03:45;;;;;;;10.35;8.90;;;19.60;99.90;;;;;;5020549;28;20224;-75
2023/08/06 11:06:16;;;;;;;9.98;8.98;;;19.50;99.90;;;;;;5010659;28;20274;-75
2023/08/06 11:08:48;;;;;;;10.57;9.57;;;19.40;99.90;;;;;;5006163;28;20231;-76
2023/08/06 11:11:15;;;;;;;10.93;9.60;;;19.40;99.90;;;;;;5013194;28;20291;-76
2023/08/06 11:13:44;;;;;;;11.68;10.10;;;19.50;99.90;;;;;;5015316;28;20192;-76
2023/08/06 11:16:10;;;;;;;11.05;9.75;;;19.40;99.90;;;;;;5013355;28;20237;-76
2023/08/06 11:18:36;;;;;;;12.05;9.98;;;19.50;99.90;;;;;;5011467;28;20263;-75
2023/08/06 11:21:02;;;;;;;10.48;9.43;;;19.60;99.90;;;;;;5009394;28;20619;-74
2023/08/06 11:23:28;;;;;;;10.65;9.45;;;19.60;99.90;;;;;;5010183;28;20204;-76
2023/08/06 11:25:56;;;;;;;10.27;9.27;;;19.60;99.90;;;;;;5008140;28;20236;-74
2023/08/06 11:28:22;;;;;;;12.07;9.30;;;19.60;99.90;;;;;;5010229;28;20201;-76
2023/08/06 11:30:48;;;;;;;9.70;8.80;;;19.40;99.90;;;;;;5011978;28;20371;-75
2023/08/06 11:33:14;;;;;;;11.35;10.20;;;19.50;99.90;;;;;;5008984;28;20211;-76
2023/08/06 11:35:40;;;;;;;10.38;9.25;;;19.40;99.90;;;;;;5008490;28;20200;-75
2023/08/06 11:38:06;;;;;;;14.13;10.50;;;19.50;99.90;;;;;;5005412;28;20209;-76
2023/08/06 11:40:33;;;;;;;11.45;10.25;;;19.50;99.90;;;;;;5007105;28;20173;-76
2023/08/06 11:42:58;;;;;;;12.52;9.70;;;19.50;99.90;;;;;;5009884;28;20205;-75
2023/08/06 11:45:24;;;;;;;11.55;10.20;;;19.50;99.90;;;;;;5010202;28;20211;-77
2023/08/06 11:47:54;;;;;;;14.30;11.75;;;19.40;99.90;;;;;;5003327;28;20213;-75
2023/08/06 11:50:25;;;;;;;12.38;10.45;;;19.30;99.90;;;;;;5010582;28;20196;-76
2023/08/06 11:53:00;;;;;;;12.40;9.68;;;19.10;99.90;;;;;;5007109;28;20547;-76
2023/08/06 11:55:28;;;;;;;11.88;10.52;;;19.00;99.90;;;;;;5010507;28;20192;-75
2023/08/06 11:57:54;;;;;;;12.88;10.55;;;18.80;99.90;;;;;;5009878;28;20789;-76
2023/08/06 12:00:22;;;;;;;14.73;11.43;;;18.80;99.90;;;;;;5010372;28;20319;-75
2023/08/06 12:02:50;;;;;;;10.52;9.50;;;18.80;99.90;;;;;;5008384;28;20197;-75
2023/08/06 12:05:17;;;;;;;10.70;9.60;;;18.70;99.90;;;;;;5009961;28;20699;-74
2023/08/06 12:07:49;;;;;;;13.02;10.52;;;18.80;99.90;;;;;;5009243;28;20173;-74
2023/08/06 12:10:15;;;;;;;12.18;10.98;;;18.80;99.90;;;;;;5009710;28;20188;-74
2023/08/06 12:12:42;;;;;;;12.43;10.15;;;18.70;99.90;;;;;;5008446;28;20196;-75
2023/08/06 12:15:08;;;;;;;12.48;11.05;;;18.60;99.90;;;;;;5006651;28;20206;-74
2023/08/06 12:17:35;;;;;;;14.23;9.13;;;18.50;99.90;;;;;;5008594;28;20292;-75
2023/08/06 12:20:02;;;;;;;11.32;9.90;;;18.80;99.90;;;;;;4999017;28;20220;-73
2023/08/06 12:22:27;;;;;;;12.02;10.43;;;18.90;99.90;;;;;;5006971;28;20279;-74
2023/08/06 12:24:53;;;;;;;11.38;10.05;;;18.80;99.90;;;;;;5006415;28;20751;-74
2023/08/06 12:27:19;;;;;;;12.82;10.30;;;18.80;99.90;;;;;;5007898;28;20196;-74
2023/08/06 12:29:47;;;;;;;9.38;8.45;;;18.90;99.90;;;;;;5009552;28;20216;-74
2023/08/06 12:32:14;;;;;;;9.70;8.55;;;19.10;99.90;;;;;;5014291;28;20216;-73
2023/08/06 12:34:40;;;;;;;9.05;8.10;;;19.20;99.90;;;;;;5008956;28;20523;-75
2023/08/06 12:37:09;;;;;;;8.43;7.60;;;19.40;99.90;;;;;;5010081;28;20171;-75
2023/08/06 12:39:35;;;;;;;10.05;8.05;;;19.40;99.90;;;;;;5006544;28;20209;-75
2023/08/06 12:42:02;;;;;;;10.90;9.15;;;19.60;99.90;;;;;;5008501;28;20197;-74